Time;durP1;ratioP1;P1;durP2;ratioP2;P2;SDS_P1;SDS_P2;PMS_P1;PMS_P2;Temp;Humidity;BMP_temperature;BMP_pressure;BME280_temperature;BME280_humidity;BME280_pressure;Samples;Min_cycle;Max_cycle;Signal;HPM_P1;HPM_P2
2023/03/25 00:00:06;;;;;;;65.25;43.42;;;13.50;99.90;;;;;;5051949;28;20040;-68
2023/03/25 00:03:10;;;;;;;71.72;45.42;;;16.50;99.90;;;;;;5052289;28;20052;-69
2023/03/25 00:06:14;;;;;;;67.63;45.10;;;;;;;;;;5051945;28;20151;-68
2023/03/25 00:09:18;;;;;;;62.47;43.47;;;12.40;99.90;;;;;;5051865;28;20075;-68
2023/03/25 00:12:22;;;;;;;68.72;43.45;;;;;;;;;;5051931;28;20040;-68
2023/03/25 00:15:28;;;;;;;65.10;43.45;;;13.40;99.90;;;;;;5051740;28;20143;-69
2023/03/25 00:18:33;;;;;;;61.25;44.05;;;;;;;;;;5051929;28;20048;-69
2023/03/25 00:21:38;;;;;;;61.75;42.97;;;14.00;99.90;;;;;;5051797;28;20036;-68
2023/03/25 00:24:42;;;;;;;64.85;43.08;;;13.10;99.90;;;;;;5050835;28;20068;-68
2023/03/25 00:27:49;;;;;;;67.18;43.47;;;17.30;99.90;;;;;;5051535;28;20222;-68
2023/03/25 00:30:54;;;;;;;65.45;44.90;;;;;;;;;;5051336;28;20048;-69
2023/03/25 00:33:58;;;;;;;67.22;45.90;;;13.40;99.90;;;;;;5052107;28;20048;-68
2023/03/25 00:37:03;;;;;;;69.57;47.15;;;;;;;;;;5051927;28;20096;-68
2023/03/25 00:40:07;;;;;;;66.47;46.10;;;;;;;;;;5051770;28;20052;-68
2023/03/25 00:43:13;;;;;;;67.40;44.70;;;13.50;99.90;;;;;;5051586;28;20048;-68
2023/03/25 00:46:17;;;;;;;70.68;45.05;;;13.60;99.90;;;;;;5051273;28;20397;-68
2023/03/25 00:49:27;;;;;;;68.35;45.63;;;;;;;;;;5050230;28;20410;-68
2023/03/25 00:52:31;;;;;;;64.03;43.22;;;13.50;99.90;;;;;;5038835;28;20048;-68
2023/03/25 00:55:36;;;;;;;56.95;39.97;;;;;;;;;;5051257;28;20159;-68
2023/03/25 00:58:40;;;;;;;59.58;41.65;;;15.60;99.90;;;;;;5051415;28;20052;-68
2023/03/25 01:01:47;;;;;;;63.03;40.83;;;;;;;;;;5050290;28;20048;-69
2023/03/25 01:04:51;;;;;;;53.10;38.20;;;13.70;99.90;;;;;;5051384;28;20064;-68
2023/03/25 01:07:55;;;;;;;62.17;40.47;;;13.40;99.90;;;;;;5050413;28;20048;-68
2023/03/25 01:10:59;;;;;;;54.13;39.17;;;13.30;99.90;;;;;;5050700;28;20361;-68
2023/03/25 01:14:05;;;;;;;57.33;38.30;;;13.30;99.90;;;;;;5051119;28;20503;-68
2023/03/25 01:17:10;;;;;;;59.97;39.17;;;13.30;99.90;;;;;;5050625;28;20127;-69
2023/03/25 01:20:14;;;;;;;52.72;37.42;;;;;;;;;;5050195;28;20044;-68
2023/03/25 01:23:18;;;;;;;58.13;39.13;;;;;;;;;;5050086;28;20454;-69
2023/03/25 01:26:22;;;;;;;62.33;39.63;;;12.80;99.90;;;;;;5050325;28;20044;-68
2023/03/25 01:29:27;;;;;;;55.53;36.70;;;;;;;;;;5050655;28;20059;-68
2023/03/25 01:32:32;;;;;;;52.47;35.95;;;;;;;;;;5049630;28;20032;-68
2023/03/25 01:35:36;;;;;;;52.08;34.38;;;;;;;;;;5050367;28;20052;-69
2023/03/25 01:38:41;;;;;;;47.50;32.75;;;13.20;99.90;;;;;;5049852;28;20055;-69
2023/03/25 01:41:47;;;;;;;49.15;33.97;;;13.20;99.90;;;;;;5049575;28;20500;-69
2023/03/25 01:44:51;;;;;;;58.63;36.35;;;13.30;99.90;;;;;;5050747;28;20059;-69
2023/03/25 01:48:18;;;;;;;49.78;33.72;;;13.20;99.90;;;;;;5050370;28;20635;-68
2023/03/25 01:51:28;;;;;;;58.25;35.50;;;13.20;99.90;;;;;;5050591;28;20051;-68
2023/03/25 01:54:33;;;;;;;50.95;36.50;;;13.40;99.90;;;;;;5050258;28;20066;-69
2023/03/25 01:57:42;;;;;;;56.15;36.63;;;13.10;99.90;;;;;;5050596;28;20052;-69
2023/03/25 02:00:49;;;;;;;57.38;36.90;;;13.10;99.90;;;;;;5049326;28;20044;-69
2023/03/25 02:04:01;;;;;;;50.92;36.17;;;;;;;;;;5049531;28;20043;-69
2023/03/25 02:07:07;;;;;;;59.13;37.13;;;13.00;99.90;;;;;;5049647;28;20052;-68
2023/03/25 02:10:12;;;;;;;59.47;37.65;;;13.00;99.90;;;;;;5049244;28;20641;-68
2023/03/25 02:13:16;;;;;;;54.55;37.80;;;12.90;99.90;;;;;;5050273;28;20032;-70
2023/03/25 02:16:32;;;;;;;53.53;37.67;;;12.80;99.90;;;;;;5050455;28;20044;-69
2023/03/25 02:20:12;;;;;;;56.35;36.65;;;11.20;99.90;;;;;;5049605;28;20064;-69
2023/03/25 02:24:04;;;;;;;55.20;36.83;;;12.90;99.90;;;;;;5049291;28;20492;-69
2023/03/25 02:27:40;;;;;;;59.50;36.67;;;13.00;99.90;;;;;;5050008;28;20064;-70
2023/03/25 02:30:49;;;;;;;54.70;36.85;;;12.90;99.90;;;;;;5048991;28;20397;-68
2023/03/25 02:33:56;;;;;;;52.70;35.17;;;13.10;99.90;;;;;;5049127;28;20048;-69
2023/03/25 02:37:25;;;;;;;47.92;35.05;;;11.10;99.90;;;;;;5049097;28;20044;-68
2023/03/25 02:41:09;;;;;;;53.20;34.92;;;13.00;99.90;;;;;;5049295;28;20052;-68
2023/03/25 02:44:13;;;;;;;54.05;34.58;;;13.10;99.90;;;;;;5050503;28;20040;-69
2023/03/25 02:47:19;;;;;;;57.10;36.22;;;12.90;99.90;;;;;;5049311;28;20048;-69
2023/03/25 02:50:51;;;;;;;48.22;36.33;;;13.00;99.90;;;;;;5052756;28;20048;-69
2023/03/25 02:54:01;;;;;;;54.22;36.25;;;13.00;99.90;;;;;;5052762;28;20492;-69
2023/03/25 02:57:07;;;;;;;51.92;36.35;;;12.90;99.90;;;;;;5053830;28;20048;-69
2023/03/25 03:00:16;;;;;;;53.30;35.67;;;12.90;99.90;;;;;;5052541;28;20040;-69
2023/03/25 03:03:20;;;;;;;53.30;35.33;;;;;;;;;;5053853;28;20043;-70
2023/03/25 03:06:25;;;;;;;51.17;36.70;;;;;;;;;;5053345;28;20040;-69
2023/03/25 03:09:48;;;;;;;49.95;35.95;;;12.70;99.90;;;;;;5052996;28;20503;-69
2023/03/25 03:13:33;;;;;;;48.72;35.20;;;12.80;99.90;;;;;;5052560;28;20052;-69
2023/03/25 03:16:50;;;;;;;50.63;34.53;;;12.90;99.90;;;;;;5051024;28;20104;-68
2023/03/25 03:20:06;;;;;;;45.13;31.65;;;13.00;99.90;;;;;;5053123;28;20389;-68
2023/03/25 03:23:23;;;;;;;50.00;32.67;;;13.00;99.90;;;;;;5052758;28;20044;-68
2023/03/25 03:26:42;;;;;;;41.45;30.95;;;13.10;99.90;;;;;;5052848;28;20036;-69
2023/03/25 03:29:51;;;;;;;41.75;29.85;;;12.90;99.90;;;;;;5052438;28;20064;-69
2023/03/25 03:33:01;;;;;;;41.25;30.80;;;15.00;99.90;;;;;;5052888;28;20147;-69
2023/03/25 03:36:12;;;;;;;45.08;31.40;;;13.00;99.90;;;;;;5052943;28;20393;-69
2023/03/25 03:39:27;;;;;;;49.30;32.67;;;13.00;99.90;;;;;;5052904;28;20061;-69
2023/03/25 03:42:38;;;;;;;47.58;33.05;;;12.80;99.90;;;;;;5052486;28;20048;-69
2023/03/25 03:45:47;;;;;;;48.28;35.08;;;12.80;99.90;;;;;;5052703;28;20036;-69
2023/03/25 03:48:57;;;;;;;50.03;34.55;;;12.80;99.90;;;;;;5052216;28;20060;-68
2023/03/25 03:52:07;;;;;;;50.83;34.45;;;12.90;99.90;;;;;;5052726;28;20507;-69
2023/03/25 03:55:22;;;;;;;45.75;33.83;;;13.20;99.90;;;;;;5052362;28;20048;-68
2023/03/25 03:58:41;;;;;;;49.70;34.28;;;12.80;99.90;;;;;;5052612;28;20401;-68
2023/03/25 04:01:52;;;;;;;49.50;34.85;;;12.90;99.90;;;;;;5052415;28;20040;-68
2023/03/25 04:04:59;;;;;;;48.50;33.60;;;12.50;99.90;;;;;;5051762;28;20036;-69
2023/03/25 04:08:10;;;;;;;45.50;32.13;;;12.50;99.90;;;;;;5052210;28;20056;-69
2023/03/25 04:11:21;;;;;;;45.45;30.38;;;12.70;99.90;;;;;;5051356;28;20056;-69
2023/03/25 04:14:25;;;;;;;46.33;31.55;;;12.60;99.90;;;;;;5052281;28;20512;-69
2023/03/25 04:17:31;;;;;;;39.92;29.35;;;12.70;99.90;;;;;;5051752;28;20504;-69
2023/03/25 04:20:35;;;;;;;37.78;28.35;;;12.90;99.90;;;;;;5051926;28;20044;-69
2023/03/25 04:23:40;;;;;;;42.88;30.08;;;12.70;99.90;;;;;;5051626;28;20480;-69
2023/03/25 04:26:45;;;;;;;40.88;29.33;;;12.70;99.90;;;;;;5052047;28;20199;-69
2023/03/25 04:29:50;;;;;;;37.25;29.02;;;12.80;99.90;;;;;;5051702;28;20052;-69
2023/03/25 04:32:55;;;;;;;45.42;31.05;;;12.90;99.90;;;;;;5051441;28;20056;-69
2023/03/25 04:36:00;;;;;;;40.50;28.38;;;12.80;99.90;;;;;;5051032;28;20048;-69
2023/03/25 04:39:06;;;;;;;36.75;28.77;;;12.90;99.90;;;;;;5051578;28;20052;-69
2023/03/25 04:42:12;;;;;;;39.85;27.80;;;12.70;99.90;;;;;;5050682;28;20052;-68
2023/03/25 04:45:17;;;;;;;44.80;29.80;;;;;;;;;;5051492;28;20040;-68
2023/03/25 04:48:24;;;;;;;40.83;27.77;;;12.70;99.90;;;;;;5051186;28;20060;-68
2023/03/25 04:51:29;;;;;;;43.92;28.95;;;12.90;99.90;;;;;;5051499;28;20051;-68
2023/03/25 04:54:34;;;;;;;45.72;29.23;;;12.80;99.90;;;;;;5051301;28;20048;-69
2023/03/25 04:57:38;;;;;;;42.55;28.35;;;12.70;99.90;;;;;;5051008;28;20056;-69
2023/03/25 05:00:44;;;;;;;45.72;29.20;;;12.60;99.90;;;;;;5051039;28;20511;-69
2023/03/25 05:03:49;;;;;;;44.83;29.63;;;12.70;99.90;;;;;;5051159;28;20056;-69
2023/03/25 05:06:53;;;;;;;50.13;29.50;;;12.80;99.90;;;;;;5051036;28;20044;-69
2023/03/25 05:09:57;;;;;;;49.50;28.92;;;12.80;99.90;;;;;;5050671;28;20044;-69
2023/03/25 05:13:06;;;;;;;38.92;28.35;;;12.80;99.90;;;;;;5050995;28;20112;-69
2023/03/25 05:16:10;;;;;;;42.80;28.10;;;13.00;99.90;;;;;;5051036;28;20055;-70
2023/03/25 05:19:17;;;;;;;46.97;29.73;;;12.10;99.90;;;;;;5050795;28;20052;-69
2023/03/25 05:22:22;;;;;;;46.53;29.55;;;12.50;99.90;;;;;;5049969;28;20040;-68
2023/03/25 05:25:27;;;;;;;47.05;28.58;;;12.60;99.90;;;;;;5049973;28;20048;-69
2023/03/25 05:28:32;;;;;;;42.50;29.05;;;12.60;99.90;;;;;;5050630;28;20039;-68
2023/03/25 05:31:36;;;;;;;43.78;28.08;;;12.60;99.90;;;;;;5050769;28;20056;-70
2023/03/25 05:34:40;;;;;;;46.63;28.58;;;11.60;99.90;;;;;;5050790;28;20040;-69
2023/03/25 05:37:44;;;;;;;46.42;29.48;;;12.70;99.90;;;;;;5050141;28;20044;-69
2023/03/25 05:40:48;;;;;;;46.75;28.80;;;12.50;99.90;;;;;;5050640;28;20048;-69
2023/03/25 05:43:52;;;;;;;39.50;29.48;;;12.60;99.90;;;;;;5050578;28;20044;-69
2023/03/25 05:47:00;;;;;;;45.90;30.13;;;12.70;99.90;;;;;;5050736;28;20052;-69
2023/03/25 05:50:04;;;;;;;47.47;30.27;;;12.90;99.90;;;;;;5050265;28;20132;-69
2023/03/25 05:53:14;;;;;;;45.20;28.30;;;12.80;99.90;;;;;;5050545;28;20508;-68
2023/03/25 05:56:20;;;;;;;38.63;27.77;;;13.00;99.90;;;;;;5050452;28;20051;-68
2023/03/25 05:59:24;;;;;;;50.72;28.17;;;13.10;99.90;;;;;;5050386;28;20495;-68
2023/03/25 06:02:29;;;;;;;49.53;29.33;;;12.80;99.90;;;;;;5050692;28;20052;-68
2023/03/25 06:05:33;;;;;;;45.28;29.67;;;13.60;99.90;;;;;;5051185;28;20385;-68
2023/03/25 06:08:37;;;;;;;39.28;26.77;;;;;;;;;;5050828;28;20397;-69
2023/03/25 06:11:41;;;;;;;44.40;28.60;;;14.50;99.90;;;;;;5049738;28;20052;-69
2023/03/25 06:14:46;;;;;;;44.78;27.90;;;15.10;99.90;;;;;;5050916;28;20500;-68
2023/03/25 06:17:52;;;;;;;43.78;29.17;;;;;;;;;;5050410;28;20044;-69
2023/03/25 06:20:57;;;;;;;47.83;31.52;;;;;;;;;;5050119;28;20048;-69
2023/03/25 06:24:01;;;;;;;52.30;30.65;;;14.00;99.90;;;;;;5053063;28;20052;-69
2023/03/25 06:27:16;;;;;;;46.63;30.98;;;14.20;99.90;;;;;;5053028;28;20036;-69
2023/03/25 06:30:21;;;;;;;45.33;29.60;;;14.00;99.90;;;;;;5053803;28;20093;-68
2023/03/25 06:33:25;;;;;;;51.40;30.77;;;;;;;;;;5054249;28;20056;-68
2023/03/25 06:36:30;;;;;;;54.08;32.85;;;;;;;;;;5053940;28;20044;-69
2023/03/25 06:39:36;;;;;;;51.45;30.98;;;13.80;99.90;;;;;;5053916;28;20040;-69
2023/03/25 06:42:48;;;;;;;54.72;32.17;;;13.90;99.90;;;;;;5053305;28;20052;-69
2023/03/25 06:46:12;;;;;;;53.85;33.20;;;14.10;99.90;;;;;;5053809;28;20500;-68
2023/03/25 06:49:38;;;;;;;60.67;37.47;;;14.20;99.90;;;;;;5055589;28;20595;-69
2023/03/25 06:52:42;;;;;;;64.93;38.63;;;14.60;99.90;;;;;;5052628;28;20044;-69
2023/03/25 06:55:46;;;;;;;61.97;38.08;;;15.20;99.90;;;;;;5052592;28;20107;-67
2023/03/25 06:58:50;;;;;;;58.05;35.70;;;15.70;99.40;;;;;;5053809;28;20511;-69
2023/03/25 07:01:55;;;;;;;54.40;34.50;;;16.10;98.80;;;;;;5053526;28;20530;-69
2023/03/25 07:04:59;;;;;;;61.17;32.03;;;16.20;98.80;;;;;;5052678;28;20048;-69
2023/03/25 07:08:04;;;;;;;53.95;34.47;;;16.40;98.50;;;;;;5053856;28;20047;-70
2023/03/25 07:11:09;;;;;;;60.80;35.42;;;16.30;98.30;;;;;;5053037;28;20063;-70
2023/03/25 07:14:14;;;;;;;53.67;33.42;;;16.40;98.60;;;;;;5053148;28;20047;-70
2023/03/25 07:17:19;;;;;;;50.30;32.78;;;16.80;98.60;;;;;;5053098;28;20044;-70
2023/03/25 07:20:23;;;;;;;53.10;33.53;;;17.20;98.30;;;;;;5054183;28;20056;-71
2023/03/25 07:23:27;;;;;;;47.05;31.33;;;17.50;97.40;;;;;;5053686;28;20052;-72
2023/03/25 07:26:31;;;;;;;46.72;28.92;;;17.60;97.40;;;;;;5053147;28;20048;-73
2023/03/25 07:29:35;;;;;;;31.45;22.58;;;17.60;96.80;;;;;;5053117;28;20052;-70
2023/03/25 07:32:39;;;;;;;34.13;21.95;;;17.50;96.70;;;;;;5052747;28;20065;-69
2023/03/25 07:35:44;;;;;;;29.00;21.02;;;17.70;96.90;;;;;;5052755;28;20420;-69
2023/03/25 07:38:48;;;;;;;31.70;23.83;;;17.90;96.40;;;;;;5052081;28;20040;-71
2023/03/25 07:41:53;;;;;;;29.65;20.70;;;18.10;96.00;;;;;;5052728;28;20056;-71
2023/03/25 07:45:26;;;;;;;27.23;18.48;;;18.10;95.70;;;;;;5056540;28;20358;-71
2023/03/25 07:48:30;;;;;;;17.23;14.05;;;18.10;95.70;;;;;;5051545;28;20044;-71
2023/03/25 07:51:34;;;;;;;18.65;14.70;;;18.10;96.10;;;;;;5052844;28;20515;-70
2023/03/25 07:54:38;;;;;;;27.40;16.77;;;18.30;95.60;;;;;;5052716;28;20202;-70
2023/03/25 07:57:46;;;;;;;20.92;15.18;;;18.60;95.40;;;;;;5053114;28;20036;-70
2023/03/25 08:00:50;;;;;;;22.80;14.02;;;18.80;95.20;;;;;;5040323;28;20500;-69
2023/03/25 08:03:54;;;;;;;20.83;15.60;;;19.00;94.70;;;;;;5052086;28;20040;-67
2023/03/25 08:06:58;;;;;;;24.95;15.48;;;19.00;94.50;;;;;;5051476;28;20063;-69
2023/03/25 08:10:02;;;;;;;21.73;13.90;;;19.00;94.40;;;;;;5051149;28;20080;-69
2023/03/25 08:13:07;;;;;;;20.00;15.43;;;19.00;94.70;;;;;;5052413;28;20048;-66
2023/03/25 08:16:12;;;;;;;26.38;18.98;;;19.20;94.60;;;;;;5052080;28;20128;-68
2023/03/25 08:19:17;;;;;;;19.83;15.00;;;19.50;94.10;;;;;;5051870;28;20044;-70
2023/03/25 08:22:21;;;;;;;21.08;16.08;;;19.70;93.60;;;;;;5052130;28;20623;-69
2023/03/25 08:25:26;;;;;;;26.27;18.05;;;19.60;93.60;;;;;;5050976;28;20060;-68
2023/03/25 08:28:31;;;;;;;24.40;17.40;;;19.30;93.60;;;;;;5052266;28;20052;-68
2023/03/25 08:31:37;;;;;;;29.27;18.33;;;19.00;93.90;;;;;;5051979;28;20052;-67
2023/03/25 08:34:41;;;;;;;22.67;18.45;;;18.70;94.10;;;;;;5051574;28;20567;-69
2023/03/25 08:37:46;;;;;;;24.73;15.80;;;18.70;94.50;;;;;;5051578;28;20111;-68
2023/03/25 08:40:50;;;;;;;25.63;16.58;;;18.80;94.70;;;;;;5050683;28;20056;-68
2023/03/25 08:43:54;;;;;;;24.05;14.73;;;18.90;94.20;;;;;;5051483;28;20060;-67
2023/03/25 08:46:58;;;;;;;26.50;14.48;;;19.00;93.90;;;;;;5050812;28;20048;-68
2023/03/25 08:50:03;;;;;;;22.45;13.35;;;19.20;93.80;;;;;;5051424;28;20044;-70
2023/03/25 08:53:08;;;;;;;22.80;13.07;;;19.30;93.50;;;;;;5051499;28;20068;-70
2023/03/25 08:56:12;;;;;;;18.58;12.65;;;19.40;93.20;;;;;;5050506;28;20104;-70
2023/03/25 08:59:16;;;;;;;20.42;12.95;;;19.50;93.00;;;;;;5050813;28;20040;-70
2023/03/25 09:02:20;;;;;;;17.60;11.27;;;19.70;92.80;;;;;;5051558;28;20052;-69
2023/03/25 09:05:25;;;;;;;12.55;9.48;;;19.80;92.00;;;;;;5050910;28;20048;-70
2023/03/25 09:08:29;;;;;;;11.55;9.45;;;19.80;91.60;;;;;;5051205;28;20040;-68
2023/03/25 09:11:34;;;;;;;17.83;11.18;;;19.80;91.50;;;;;;5051040;28;20052;-68
2023/03/25 09:14:38;;;;;;;18.73;10.48;;;19.80;91.40;;;;;;5050981;28;20048;-68
2023/03/25 09:17:43;;;;;;;12.40;10.07;;;19.80;91.30;;;;;;5050937;28;20585;-69
2023/03/25 09:20:47;;;;;;;10.02;8.93;;;19.90;91.50;;;;;;5051087;28;20031;-69
2023/03/25 09:23:51;;;;;;;12.23;8.88;;;20.00;91.00;;;;;;5050996;28;20416;-68
2023/03/25 09:26:55;;;;;;;10.57;7.80;;;20.10;91.00;;;;;;5050966;28;20694;-69
2023/03/25 09:29:58;;;;;;;13.23;8.88;;;20.20;91.00;;;;;;5050748;28;20503;-70
2023/03/25 09:33:02;;;;;;;13.95;7.45;;;20.20;90.40;;;;;;5050995;28;20044;-69
2023/03/25 09:36:07;;;;;;;11.43;7.50;;;20.20;90.50;;;;;;5050803;28;20048;-69
2023/03/25 09:39:11;;;;;;;12.10;7.22;;;20.00;90.60;;;;;;5050897;28;20483;-69
2023/03/25 09:42:30;;;;;;;13.02;7.75;;;20.00;90.70;;;;;;5049736;28;20052;-71
2023/03/25 09:45:43;;;;;;;9.93;7.03;;;20.10;90.70;;;;;;5050778;28;20064;-68
2023/03/25 09:48:49;;;;;;;8.15;5.85;;;20.20;90.60;;;;;;5050579;28;20052;-70
2023/03/25 09:51:55;;;;;;;11.70;6.93;;;20.40;90.10;;;;;;5050510;28;20052;-71
2023/03/25 09:55:05;;;;;;;10.95;6.65;;;20.50;89.20;;;;;;5049808;28;20040;-69
2023/03/25 09:58:35;;;;;;;10.50;6.27;;;20.60;88.50;;;;;;5041993;28;20053;-69
2023/03/25 10:01:57;;;;;;;10.25;7.07;;;20.80;88.70;;;;;;5054583;28;20047;-68
2023/03/25 10:05:23;;;;;;;8.07;6.78;;;20.90;87.70;;;;;;5054666;28;20067;-68
2023/03/25 10:08:53;;;;;;;12.75;6.35;;;21.20;87.30;;;;;;5054527;28;20048;-68
2023/03/25 10:12:06;;;;;;;16.83;6.97;;;21.40;86.00;;;;;;5055102;28;20048;-70
2023/03/25 10:15:26;;;;;;;8.68;5.93;;;21.50;85.00;;;;;;5054541;28;20051;-69
2023/03/25 10:18:45;;;;;;;10.27;6.45;;;21.40;83.00;;;;;;5054502;28;20047;-68
2023/03/25 10:22:24;;;;;;;17.48;6.30;;;21.40;84.50;;;;;;5054677;28;20385;-70
2023/03/25 10:25:34;;;;;;;6.82;4.75;;;21.50;86.00;;;;;;5054623;28;20376;-69
2023/03/25 10:28:43;;;;;;;7.05;5.43;;;21.60;85.50;;;;;;5053145;28;20051;-69
2023/03/25 10:31:53;;;;;;;6.43;4.50;;;21.60;85.20;;;;;;5054048;28;20052;-69
2023/03/25 10:34:58;;;;;;;10.40;5.10;;;21.70;85.30;;;;;;5053148;28;20040;-70
2023/03/25 10:38:19;;;;;;;8.27;4.90;;;21.80;85.20;;;;;;5053971;28;20036;-71
2023/03/25 10:41:26;;;;;;;11.60;6.00;;;22.00;85.20;;;;;;5054055;28;20052;-69
2023/03/25 10:44:30;;;;;;;7.10;5.15;;;22.10;83.60;;;;;;5053935;28;20044;-69
2023/03/25 10:47:39;;;;;;;10.90;5.32;;;22.10;82.00;;;;;;5053592;28;20608;-69
2023/03/25 10:50:45;;;;;;;9.13;5.13;;;22.10;83.60;;;;;;5053764;28;20496;-68
2023/03/25 10:53:51;;;;;;;9.77;4.43;;;22.10;83.80;;;;;;5053476;28;20373;-69
2023/03/25 10:56:59;;;;;;;7.55;4.80;;;22.10;82.90;;;;;;5053592;28;20040;-69
2023/03/25 11:00:17;;;;;;;8.70;4.95;;;22.10;82.90;;;;;;5053814;28;20048;-68
2023/03/25 11:03:30;;;;;;;8.15;5.40;;;22.10;83.40;;;;;;5053798;28;20040;-68
2023/03/25 11:06:41;;;;;;;11.73;5.20;;;22.10;83.00;;;;;;5053318;28;20580;-68
2023/03/25 11:09:44;;;;;;;13.52;5.80;;;22.00;82.20;;;;;;5052368;28;20044;-68
2023/03/25 11:12:51;;;;;;;11.80;5.47;;;21.80;83.20;;;;;;5053311;28;20060;-68
2023/03/25 11:16:02;;;;;;;12.43;4.90;;;21.80;82.60;;;;;;5053375;28;20040;-68
2023/03/25 11:19:06;;;;;;;8.03;4.30;;;21.70;83.00;;;;;;5053315;28;20052;-69
2023/03/25 11:22:17;;;;;;;11.13;5.43;;;21.60;84.10;;;;;;5053184;28;20036;-68
2023/03/25 11:25:29;;;;;;;6.18;4.40;;;21.60;83.20;;;;;;5052984;28;20051;-67
2023/03/25 11:28:50;;;;;;;9.55;4.32;;;21.50;82.90;;;;;;5053277;28;20507;-69
2023/03/25 11:31:57;;;;;;;9.57;4.82;;;21.50;83.20;;;;;;5053308;28;20051;-69
2023/03/25 11:35:06;;;;;;;13.38;4.78;;;21.50;82.60;;;;;;5053043;28;20048;-68
2023/03/25 11:38:19;;;;;;;6.88;4.43;;;21.40;82.80;;;;;;5050824;28;20060;-68
2023/03/25 11:41:28;;;;;;;6.00;4.20;;;21.30;81.70;;;;;;5052673;28;20511;-68
2023/03/25 11:44:32;;;;;;;7.05;4.32;;;21.20;81.90;;;;;;5052794;28;20044;-67
2023/03/25 11:47:39;;;;;;;5.95;4.22;;;21.20;82.60;;;;;;5052297;28;20048;-67
2023/03/25 11:50:51;;;;;;;10.65;5.15;;;21.10;82.80;;;;;;5052189;28;20048;-68
2023/03/25 11:54:00;;;;;;;8.13;4.95;;;21.10;83.60;;;;;;5051362;28;20392;-67
2023/03/25 11:57:10;;;;;;;9.60;5.75;;;21.10;83.20;;;;;;5052432;28;20043;-68
2023/03/25 12:00:39;;;;;;;9.63;5.60;;;21.00;83.20;;;;;;5052453;28;20040;-68
2023/03/25 12:03:44;;;;;;;7.63;6.05;;;21.00;82.90;;;;;;5051666;28;20064;-68
2023/03/25 12:07:05;;;;;;;19.85;4.90;;;20.90;83.00;;;;;;5051187;28;20089;-68
2023/03/25 12:10:23;;;;;;;8.33;4.13;;;20.90;82.70;;;;;;5052251;28;20397;-68
2023/03/25 12:13:33;;;;;;;6.88;3.95;;;21.00;83.00;;;;;;5051143;28;20143;-68
2023/03/25 12:16:40;;;;;;;6.82;4.50;;;20.90;83.80;;;;;;5052024;28;20044;-68
2023/03/25 12:19:48;;;;;;;8.50;4.93;;;21.00;84.40;;;;;;5052175;28;20052;-69
2023/03/25 12:23:16;;;;;;;8.13;4.55;;;21.00;84.00;;;;;;5051810;28;20515;-67
2023/03/25 12:26:31;;;;;;;8.32;4.97;;;20.90;84.10;;;;;;5052356;28;20060;-69
2023/03/25 12:29:57;;;;;;;7.43;5.05;;;20.90;83.70;;;;;;5051667;28;20052;-68
2023/03/25 12:33:12;;;;;;;6.28;4.65;;;20.90;83.70;;;;;;5051929;28;20068;-68
2023/03/25 12:36:24;;;;;;;5.53;4.32;;;20.90;84.10;;;;;;5051936;28;20048;-68
2023/03/25 12:39:53;;;;;;;7.85;5.50;;;20.80;83.70;;;;;;5051642;28;20060;-67
2023/03/25 12:43:05;;;;;;;6.28;4.97;;;20.80;84.10;;;;;;5051848;28;20500;-67
2023/03/25 12:46:34;;;;;;;8.73;5.07;;;20.80;82.90;;;;;;5051067;28;20044;-68
2023/03/25 12:49:50;;;;;;;7.68;4.80;;;20.80;83.70;;;;;;5051639;28;20056;-69
2023/03/25 12:53:18;;;;;;;6.18;4.40;;;20.70;84.10;;;;;;5051560;28;20429;-68
2023/03/25 12:57:04;;;;;;;9.30;6.07;;;20.70;83.40;;;;;;5051960;28;20040;-68
2023/03/25 13:00:41;;;;;;;7.32;6.03;;;20.60;84.10;;;;;;5051261;28;20047;-68
2023/03/25 13:03:59;;;;;;;7.10;5.07;;;20.60;84.80;;;;;;5051019;28;20046;-67
2023/03/25 13:07:09;;;;;;;6.22;3.97;;;20.60;85.60;;;;;;5050309;28;20036;-68
2023/03/25 13:10:16;;;;;;;7.57;5.30;;;20.60;85.60;;;;;;5050427;28;20056;-68
2023/03/25 13:13:24;;;;;;;8.02;5.18;;;20.60;86.20;;;;;;5051198;28;20068;-68
2023/03/25 13:16:30;;;;;;;7.03;4.43;;;20.50;85.50;;;;;;5038573;28;20051;-68
2023/03/25 13:19:39;;;;;;;9.65;5.13;;;20.50;85.90;;;;;;5050744;28;20048;-68
2023/03/25 13:22:50;;;;;;;15.60;5.50;;;20.50;87.20;;;;;;5050650;28;20503;-68
2023/03/25 13:26:01;;;;;;;7.47;4.63;;;20.50;87.60;;;;;;5051012;28;20047;-67
2023/03/25 13:29:29;;;;;;;11.07;4.53;;;20.40;88.80;;;;;;5050558;28;20052;-68
2023/03/25 13:32:49;;;;;;;10.18;4.65;;;20.40;89.60;;;;;;5050197;28;20060;-68
2023/03/25 13:36:08;;;;;;;11.77;4.03;;;20.30;87.80;;;;;;5050939;28;20063;-68
2023/03/25 13:39:28;;;;;;;7.22;4.03;;;20.30;88.00;;;;;;5050420;28;20504;-68
2023/03/25 13:42:43;;;;;;;5.07;3.88;;;20.30;88.40;;;;;;5050652;28;20044;-68
2023/03/25 13:46:08;;;;;;;12.77;5.45;;;20.30;89.20;;;;;;5050564;28;20036;-67
2023/03/25 13:49:27;;;;;;;10.50;6.55;;;20.40;89.70;;;;;;5050417;28;20048;-67
2023/03/25 13:52:38;;;;;;;5.70;4.32;;;20.30;88.70;;;;;;5050860;28;20102;-68
2023/03/25 13:55:57;;;;;;;5.60;4.72;;;20.30;89.10;;;;;;5050929;28;20044;-69
2023/03/25 13:59:24;;;;;;;5.13;4.32;;;20.20;85.60;;;;;;5049480;28;20531;-68
2023/03/25 14:03:07;;;;;;;7.75;5.25;;;20.20;87.60;;;;;;5050402;28;20412;-68
2023/03/25 14:06:29;;;;;;;6.07;4.00;;;20.20;88.20;;;;;;5050507;28;20048;-68
2023/03/25 14:10:10;;;;;;;9.85;4.55;;;20.10;88.00;;;;;;5050313;28;20036;-68
2023/03/25 14:13:24;;;;;;;7.78;4.43;;;20.10;86.50;;;;;;5050461;28;20124;-68
2023/03/25 14:16:36;;;;;;;8.10;4.43;;;20.00;88.00;;;;;;5050355;28;20048;-69
2023/03/25 14:19:47;;;;;;;10.57;4.70;;;20.00;89.00;;;;;;5049214;28;20048;-68
2023/03/25 14:22:58;;;;;;;5.55;3.67;;;20.00;87.50;;;;;;5050143;28;20044;-66
2023/03/25 14:26:05;;;;;;;6.55;4.57;;;19.90;85.60;;;;;;5050402;28;20056;-67
2023/03/25 14:29:18;;;;;;;5.53;4.30;;;19.90;86.40;;;;;;5050334;28;20056;-66
2023/03/25 14:32:22;;;;;;;11.25;5.57;;;19.90;86.60;;;;;;5050463;28;20072;-68
2023/03/25 14:35:32;;;;;;;10.25;4.78;;;19.80;86.10;;;;;;5050398;28;20048;-67
2023/03/25 14:38:57;;;;;;;5.35;4.50;;;19.80;85.80;;;;;;5050370;28;20040;-68
2023/03/25 14:42:06;;;;;;;5.85;4.00;;;19.70;87.40;;;;;;5050462;28;20048;-67
2023/03/25 14:46:03;;;;;;;9.02;4.05;;;19.70;88.40;;;;;;5052312;28;20051;-67
2023/03/25 14:49:21;;;;;;;8.75;3.60;;;19.60;86.30;;;;;;5050101;28;20070;-68
2023/03/25 14:52:48;;;;;;;15.43;4.60;;;19.60;86.30;;;;;;5053521;28;20076;-68
2023/03/25 14:55:54;;;;;;;9.45;4.97;;;19.50;89.30;;;;;;5053289;28;20044;-67
2023/03/25 14:59:16;;;;;;;7.50;4.75;;;19.50;89.70;;;;;;5052591;28;20048;-67
2023/03/25 15:02:32;;;;;;;8.30;4.53;;;19.50;90.00;;;;;;5053563;28;20056;-67
2023/03/25 15:05:37;;;;;;;19.40;4.82;;;19.50;90.20;;;;;;5053671;28;20040;-68
2023/03/25 15:08:51;;;;;;;7.50;4.00;;;19.50;90.60;;;;;;5053403;28;20044;-68
2023/03/25 15:12:04;;;;;;;6.55;3.75;;;19.40;91.10;;;;;;5052943;28;20044;-67
2023/03/25 15:15:29;;;;;;;12.90;4.05;;;19.40;90.90;;;;;;5053088;28;20056;-68
2023/03/25 15:18:36;;;;;;;13.30;4.57;;;19.30;90.70;;;;;;5053068;28;20052;-68
2023/03/25 15:21:55;;;;;;;12.50;4.47;;;19.30;90.50;;;;;;5052085;28;20052;-67
2023/03/25 15:25:01;;;;;;;6.55;3.67;;;19.30;90.60;;;;;;5052944;28;20052;-68
2023/03/25 15:28:16;;;;;;;10.75;3.63;;;19.20;91.10;;;;;;5053013;28;20044;-67
2023/03/25 15:35:36;;;;;;;7.35;3.22;;;19.10;90.90;;;;;;5052288;28;20044;-71
2023/03/25 15:38:49;;;;;;;11.70;4.15;;;19.10;91.50;;;;;;5051003;28;20559;-70
2023/03/25 15:41:56;;;;;;;5.18;3.63;;;19.10;92.20;;;;;;5052356;28;20051;-70
2023/03/25 15:45:25;;;;;;;5.47;3.30;;;19.00;92.10;;;;;;5052948;28;20527;-71
2023/03/25 15:48:44;;;;;;;14.73;4.22;;;19.00;91.90;;;;;;5052742;28;20048;-70
2023/03/25 15:52:07;;;;;;;6.43;4.00;;;19.00;92.10;;;;;;5052578;28;20071;-71
2023/03/25 15:55:18;;;;;;;10.32;3.88;;;18.90;92.30;;;;;;5052382;28;20127;-72
2023/03/25 15:58:37;;;;;;;7.82;4.38;;;18.80;92.60;;;;;;5052611;28;20040;-70
2023/03/25 16:01:46;;;;;;;8.00;4.10;;;18.80;92.90;;;;;;5052592;28;20101;-70
2023/03/25 16:04:52;;;;;;;10.63;4.80;;;18.80;93.00;;;;;;5051901;28;20052;-69
2023/03/25 16:08:00;;;;;;;9.80;4.72;;;18.70;93.30;;;;;;5052738;28;20048;-71
2023/03/25 16:11:30;;;;;;;9.80;4.13;;;18.60;93.40;;;;;;5052259;28;20064;-71
2023/03/25 16:14:35;;;;;;;9.65;4.32;;;18.60;93.10;;;;;;5052309;28;20044;-70
2023/03/25 16:17:41;;;;;;;13.55;4.43;;;18.60;93.40;;;;;;5052380;28;20056;-71
2023/03/25 16:20:46;;;;;;;7.82;4.75;;;18.50;93.40;;;;;;5051040;28;20044;-70
2023/03/25 16:23:55;;;;;;;7.38;4.57;;;18.40;93.70;;;;;;5050551;28;20056;-73
2023/03/25 16:27:10;;;;;;;8.60;4.38;;;18.40;93.60;;;;;;5051492;28;20040;-72